createdAt,value
2023-10-26T00:01:20.627Z,96611.27
2023-10-26T00:03:49.021Z,96614.05
2023-10-26T00:06:17.424Z,96623.98
2023-10-26T00:08:45.635Z,96630.25
2023-10-26T00:11:13.749Z,96632.28
2023-10-26T00:13:41.880Z,96634.29
2023-10-26T00:16:10.203Z,96629.05
2023-10-26T00:18:38.193Z,96624.75
2023-10-26T00:21:06.398Z,96619.95
2023-10-26T00:23:34.589Z,96619.48
2023-10-26T00:26:02.608Z,96618.05
2023-10-26T00:28:30.617Z,96617.98
2023-10-26T00:30:59.094Z,96621.09
2023-10-26T00:33:27.289Z,96618.34
2023-10-26T00:35:55.456Z,96610.42
2023-10-26T00:38:23.446Z,96609.56
2023-10-26T00:40:51.523Z,96607.84
2023-10-26T00:43:21.392Z,96611.13
2023-10-26T00:45:52.611Z,96612.16
2023-10-26T00:48:21.352Z,96609.07
2023-10-26T00:50:49.802Z,96598.29
2023-10-26T00:53:19.929Z,96594.72
2023-10-26T00:55:52.552Z,96592.66
2023-10-26T00:58:21.716Z,96596.89
2023-10-26T01:00:49.819Z,96603.67
2023-10-26T01:03:17.914Z,96594.58
2023-10-26T01:05:47.475Z,96586.34
2023-10-26T01:08:15.923Z,96577.95
2023-10-26T01:10:44.023Z,96575.67
2023-10-26T01:13:12.171Z,96581.58
2023-10-26T01:15:41.409Z,96587.48
2023-10-26T01:18:09.587Z,96589.84
2023-10-26T01:20:41.305Z,96581.84
2023-10-26T01:23:09.570Z,96574.40
2023-10-26T01:25:38.048Z,96573.63
2023-10-26T01:28:08.249Z,96578.30
2023-10-26T01:30:36.218Z,96583.58
2023-10-26T01:33:04.348Z,96583.11
2023-10-26T01:35:47.107Z,96580.38
2023-10-26T01:38:15.296Z,96578.89
2023-10-26T01:40:43.368Z,96585.16
2023-10-26T01:43:11.548Z,96587.73
2023-10-26T01:45:39.747Z,96590.72
2023-10-26T01:48:07.835Z,96589.48
2023-10-26T01:50:36.348Z,96587.98
2023-10-26T01:53:04.419Z,96590.23
2023-10-26T01:55:32.690Z,96594.42
2023-10-26T01:58:00.756Z,96596.92
2023-10-26T02:00:28.999Z,96593.68
2023-10-26T02:02:57.409Z,96597.34
2023-10-26T02:05:26.682Z,96589.02
2023-10-26T02:07:54.930Z,96583.34
2023-10-26T02:10:25.213Z,96582.69
2023-10-26T02:12:53.279Z,96580.06
2023-10-26T02:15:21.563Z,96579.43
2023-10-26T02:17:50.209Z,96577.77
2023-10-26T02:20:18.350Z,96574.90
2023-10-26T02:22:48.083Z,96577.95
2023-10-26T02:25:16.661Z,96583.73
2023-10-26T02:27:44.903Z,96578.95
2023-10-26T02:30:13.415Z,96578.78
2023-10-26T02:32:42.009Z,96571.64
2023-10-26T02:35:10.499Z,96566.64
2023-10-26T02:37:41.987Z,96565.42
2023-10-26T02:40:10.793Z,96562.70
2023-10-26T02:42:40.340Z,96566.29
2023-10-26T02:45:09.376Z,96576.16
2023-10-26T02:47:39.143Z,96575.80
2023-10-26T02:50:07.788Z,96572.38
2023-10-26T02:52:36.984Z,96569.10
2023-10-26T02:55:06.697Z,96568.64
2023-10-26T02:57:34.759Z,96571.26
2023-10-26T03:00:03.843Z,96571.77
2023-10-26T03:02:32.100Z,96573.46
2023-10-26T03:05:00.251Z,96569.80
2023-10-26T03:07:28.444Z,96573.27
2023-10-26T03:09:57.016Z,96572.11
2023-10-26T03:12:25.133Z,96574.38
2023-10-26T03:14:53.938Z,96582.58
2023-10-26T03:17:22.031Z,96587.84
2023-10-26T03:19:50.057Z,96596.04
2023-10-26T03:22:18.032Z,96611.66
2023-10-26T03:24:46.226Z,96623.74
2023-10-26T03:27:14.460Z,96621.85
2023-10-26T03:29:43.774Z,96605.69
2023-10-26T03:32:12.623Z,96602.33
2023-10-26T03:34:40.724Z,96600.84
2023-10-26T03:37:09.977Z,96596.20
2023-10-26T03:39:38.195Z,96583.48
2023-10-26T03:42:06.524Z,96580.21
2023-10-26T03:44:34.542Z,96575.71
2023-10-26T03:47:02.922Z,96574.52
2023-10-26T03:49:30.994Z,96584.77
2023-10-26T03:51:59.014Z,96584.85
2023-10-26T03:54:27.178Z,96580.91
2023-10-26T03:56:55.249Z,96583.55
2023-10-26T03:59:23.395Z,96576.33
2023-10-26T04:01:51.491Z,96569.30
2023-10-26T04:04:19.659Z,96560.98
2023-10-26T04:06:47.656Z,96561.50
2023-10-26T04:09:15.917Z,96568.45
2023-10-26T04:11:45.896Z,96568.14
2023-10-26T04:14:13.959Z,96560.73
2023-10-26T04:16:42.045Z,96546.88
2023-10-26T04:19:10.137Z,96549.85
2023-10-26T04:21:38.186Z,96550.55
2023-10-26T04:24:06.262Z,96552.70
2023-10-26T04:26:34.453Z,96551.55
2023-10-26T04:29:02.520Z,96549.63
2023-10-26T04:31:30.526Z,96551.70
2023-10-26T04:33:59.607Z,96552.98
2023-10-26T04:36:27.842Z,96548.53
2023-10-26T04:38:55.981Z,96544.31
2023-10-26T04:41:24.163Z,96542.73
2023-10-26T04:43:52.291Z,96543.56
2023-10-26T04:46:20.427Z,96549.22
2023-10-26T04:48:48.836Z,96549.63
2023-10-26T04:51:17.072Z,96540.02
2023-10-26T04:53:45.221Z,96534.83
2023-10-26T04:56:13.300Z,96534.82
2023-10-26T04:58:41.883Z,96538.39
2023-10-26T05:01:10.237Z,96529.13
2023-10-26T05:03:39.459Z,96525.36
2023-10-26T05:06:08.202Z,96528.67
2023-10-26T05:08:36.441Z,96524.04
2023-10-26T05:11:04.627Z,96521.63
2023-10-26T05:13:32.972Z,96526.03
2023-10-26T05:16:01.334Z,96518.49
2023-10-26T05:18:29.699Z,96522.77
2023-10-26T05:20:57.848Z,96532.66
2023-10-26T05:23:25.913Z,96533.32
2023-10-26T05:25:54.045Z,96519.53
2023-10-26T05:28:22.189Z,96518.52
2023-10-26T05:30:50.229Z,96536.45
2023-10-26T05:33:18.474Z,96541.06
2023-10-26T05:35:46.559Z,96520.90
2023-10-26T05:38:18.056Z,96530.42
2023-10-26T05:40:50.991Z,96544.38
2023-10-26T05:43:19.113Z,96550.86
2023-10-26T05:45:47.184Z,96545.73
2023-10-26T05:48:15.358Z,96552.38
2023-10-26T05:50:44.202Z,96554.29
2023-10-26T05:53:12.186Z,96547.70
2023-10-26T05:55:43.207Z,96553.39
2023-10-26T05:58:11.393Z,96556.20
2023-10-26T06:00:40.002Z,96553.23
2023-10-26T06:03:08.659Z,96551.55
2023-10-26T06:05:37.133Z,96550.40
2023-10-26T06:08:05.476Z,96546.14
2023-10-26T06:10:34.034Z,96550.09
2023-10-26T06:13:03.908Z,96550.39
2023-10-26T06:15:32.202Z,96552.29
2023-10-26T06:18:00.618Z,96549.02
2023-10-26T06:20:29.374Z,96545.80
2023-10-26T06:22:57.765Z,96547.40
2023-10-26T06:25:30.185Z,96547.99
2023-10-26T06:27:58.327Z,96542.66
2023-10-26T06:30:26.451Z,96539.96
2023-10-26T06:32:54.557Z,96534.33
2023-10-26T06:35:22.736Z,96535.91
2023-10-26T06:37:50.850Z,96544.28
2023-10-26T06:40:18.842Z,96551.18
2023-10-26T06:42:46.973Z,96555.28
2023-10-26T06:45:15.102Z,96553.06
2023-10-26T06:47:43.873Z,96555.96
2023-10-26T06:50:12.064Z,96555.13
2023-10-26T06:52:40.274Z,96555.06
2023-10-26T06:55:15.528Z,96553.00
2023-10-26T06:57:48.090Z,96557.22
2023-10-26T07:00:16.865Z,96562.55
2023-10-26T07:02:45.697Z,96565.08
2023-10-26T07:05:14.268Z,96568.58
2023-10-26T07:07:42.254Z,96565.45
2023-10-26T07:10:16.435Z,96570.96
2023-10-26T07:12:44.962Z,96578.55
2023-10-26T07:15:13.487Z,96578.92
2023-10-26T07:17:41.616Z,96579.64
2023-10-26T07:20:10.362Z,96582.15
2023-10-26T07:22:39.865Z,96584.23
2023-10-26T07:25:08.315Z,96587.50
2023-10-26T07:27:36.567Z,96581.52
2023-10-26T07:30:05.057Z,96575.62
2023-10-26T07:32:33.373Z,96579.92
2023-10-26T07:35:02.894Z,96586.52
2023-10-26T07:37:31.154Z,96581.52
2023-10-26T07:42:47.332Z,96567.94
2023-10-26T07:45:15.520Z,96562.61
2023-10-26T07:47:43.933Z,96559.30
2023-10-26T07:50:12.830Z,96559.66
2023-10-26T07:52:41.012Z,96562.46
2023-10-26T07:55:11.750Z,96570.10
2023-10-26T07:57:40.126Z,96568.14
2023-10-26T08:00:09.451Z,96564.21
2023-10-26T08:02:41.822Z,96563.02
2023-10-26T08:05:11.020Z,96567.32
2023-10-26T08:07:39.609Z,96571.66
2023-10-26T08:10:08.811Z,96575.68
2023-10-26T08:12:55.865Z,96573.73
2023-10-26T08:16:30.179Z,96573.85
2023-10-26T08:18:13.524Z,96570.80
2023-10-26T08:20:41.962Z,96573.27
2023-10-26T08:23:10.086Z,96578.48
2023-10-26T08:25:38.355Z,96571.64
2023-10-26T08:28:06.644Z,96565.14
2023-10-26T08:30:34.654Z,96568.55
2023-10-26T08:33:05.724Z,96570.42
2023-10-26T08:35:34.238Z,96564.58
2023-10-26T08:38:02.258Z,96556.02
2023-10-26T08:40:31.349Z,96545.15
2023-10-26T08:43:01.149Z,96552.23
2023-10-26T08:45:30.911Z,96553.10
2023-10-26T08:47:59.083Z,96547.91
2023-10-26T08:50:27.340Z,96551.17
2023-10-26T08:52:57.649Z,96550.04
2023-10-26T08:55:26.541Z,96556.80
2023-10-26T08:58:01.910Z,96558.67
2023-10-26T09:00:30.815Z,96564.83
2023-10-26T09:02:59.694Z,96570.81
2023-10-26T09:05:28.226Z,96569.94
2023-10-26T09:07:56.471Z,96567.27
2023-10-26T09:10:31.604Z,96567.66
2023-10-26T09:13:04.464Z,96566.35
2023-10-26T09:15:46.362Z,96563.43
2023-10-26T09:18:16.648Z,96555.60
2023-10-26T09:21:01.452Z,96545.79
2023-10-26T09:23:30.209Z,96549.48
2023-10-26T09:25:59.270Z,96547.25
2023-10-26T09:28:27.479Z,96546.41
2023-10-26T09:31:03.459Z,96547.75
2023-10-26T09:33:32.653Z,96548.90
2023-10-26T09:36:11.722Z,96554.48
2023-10-26T09:38:40.556Z,96553.92
2023-10-26T09:41:20.132Z,96552.52
2023-10-26T09:43:49.347Z,96549.69
2023-10-26T09:46:21.580Z,96545.84
2023-10-26T09:48:50.263Z,96537.34
2023-10-26T09:51:20.138Z,96534.63
2023-10-26T09:53:49.667Z,96531.40
2023-10-26T09:56:24.224Z,96525.44
2023-10-26T09:58:54.051Z,96527.58
2023-10-26T10:01:41.044Z,96525.14
2023-10-26T10:04:12.761Z,96522.04
2023-10-26T10:06:44.992Z,96521.38
2023-10-26T10:09:13.754Z,96523.55
2023-10-26T10:11:42.013Z,96517.82
2023-10-26T10:14:10.197Z,96509.21
2023-10-26T10:16:50.456Z,96506.06
2023-10-26T10:19:27.269Z,96508.59
2023-10-26T10:21:55.713Z,96508.31
2023-10-26T10:24:46.508Z,96502.88
2023-10-26T10:27:19.583Z,96496.71
2023-10-26T10:29:48.564Z,96490.33
2023-10-26T10:32:35.790Z,96484.35
2023-10-26T10:35:06.351Z,96485.31
2023-10-26T10:37:34.422Z,96483.04
2023-10-26T10:40:13.516Z,96483.30
2023-10-26T10:42:46.620Z,96480.73
2023-10-26T10:45:14.758Z,96480.27
2023-10-26T10:47:43.756Z,96477.59
2023-10-26T10:50:20.635Z,96467.13
2023-10-26T10:52:49.528Z,96465.20
2023-10-26T10:55:25.134Z,96460.52
2023-10-26T10:58:03.420Z,96457.31
2023-10-26T11:00:44.129Z,96450.77
2023-10-26T11:03:38.605Z,96454.14
2023-10-26T11:06:06.959Z,96456.10
2023-10-26T11:08:39.687Z,96458.46
2023-10-26T11:11:07.778Z,96457.58
2023-10-26T11:13:35.953Z,96458.34
2023-10-26T11:16:16.130Z,96463.16
2023-10-26T11:18:44.283Z,96463.52
2023-10-26T11:21:18.902Z,96459.73
2023-10-26T11:23:51.798Z,96456.51
2023-10-26T11:26:19.794Z,96457.04
2023-10-26T11:28:48.170Z,96454.77
2023-10-26T11:31:17.156Z,96451.95
2023-10-26T11:33:45.808Z,96453.50
2023-10-26T11:36:14.469Z,96449.08
2023-10-26T11:38:52.502Z,96443.05
2023-10-26T11:41:24.080Z,96438.62
2023-10-26T11:43:52.432Z,96436.89
2023-10-26T11:46:36.700Z,96435.33
2023-10-26T11:49:06.444Z,96436.35
2023-10-26T11:51:37.130Z,96433.52
2023-10-26T11:54:13.081Z,96426.07
2023-10-26T11:56:41.683Z,96425.83
2023-10-26T11:59:09.869Z,96426.58
2023-10-26T12:01:37.999Z,96426.00
2023-10-26T12:04:11.375Z,96424.21
2023-10-26T12:06:39.677Z,96426.98
2023-10-26T12:09:07.806Z,96429.64
2023-10-26T12:11:36.158Z,96431.81
2023-10-26T12:14:04.193Z,96431.36
2023-10-26T12:16:32.277Z,96432.61
2023-10-26T12:19:00.606Z,96431.58
2023-10-26T12:21:28.994Z,96422.53
2023-10-26T12:23:57.791Z,96423.81
2023-10-26T12:26:25.999Z,96420.19
2023-10-26T12:28:54.205Z,96421.36
2023-10-26T12:31:22.632Z,96419.97
2023-10-26T12:33:51.654Z,96421.83
2023-10-26T12:36:20.470Z,96419.25
2023-10-26T12:38:48.658Z,96422.23
2023-10-26T12:41:16.811Z,96424.87
2023-10-26T12:43:44.791Z,96422.92
2023-10-26T12:46:13.670Z,96418.61
2023-10-26T12:48:41.812Z,96413.77
2023-10-26T12:51:09.813Z,96420.29
2023-10-26T12:53:37.943Z,96419.70
2023-10-26T12:56:07.270Z,96414.30
2023-10-26T12:58:35.249Z,96418.08
2023-10-26T13:01:03.712Z,96420.56
2023-10-26T13:03:31.958Z,96417.75
2023-10-26T13:06:00.199Z,96416.98
2023-10-26T13:08:29.131Z,96417.52
2023-10-26T13:10:57.301Z,96412.83
2023-10-26T13:13:25.375Z,96411.14
2023-10-26T13:15:53.930Z,96413.96
2023-10-26T13:18:22.714Z,96418.33
2023-10-26T13:20:51.551Z,96415.58
2023-10-26T13:23:19.659Z,96415.24
2023-10-26T13:25:48.082Z,96420.72
2023-10-26T13:28:16.356Z,96424.06
2023-10-26T13:30:44.756Z,96426.65
2023-10-26T13:33:13.980Z,96424.42
2023-10-26T13:35:42.354Z,96420.05
2023-10-26T13:38:16.424Z,96420.85
2023-10-26T13:40:45.204Z,96421.33
2023-10-26T13:43:16.878Z,96421.66
2023-10-26T13:45:45.165Z,96421.89
2023-10-26T13:48:14.881Z,96420.00
2023-10-26T13:50:44.760Z,96420.77
2023-10-26T13:53:15.285Z,96420.50
2023-10-26T13:55:43.396Z,96417.19
2023-10-26T13:58:11.507Z,96414.85
2023-10-26T14:00:40.178Z,96422.16
2023-10-26T14:03:08.338Z,96423.02
2023-10-26T14:05:38.694Z,96424.52
2023-10-26T14:08:06.893Z,96429.89
2023-10-26T14:10:34.949Z,96433.02
2023-10-26T14:13:05.328Z,96429.21
2023-10-26T14:15:35.561Z,96436.10
2023-10-26T14:18:03.705Z,96434.38
2023-10-26T14:20:31.669Z,96430.70
2023-10-26T14:23:01.787Z,96428.66
2023-10-26T14:25:31.302Z,96426.38
2023-10-26T14:27:59.311Z,96424.58
2023-10-26T14:30:27.542Z,96422.40
2023-10-26T14:32:55.642Z,96417.99
2023-10-26T14:35:23.915Z,96421.63
2023-10-26T14:37:52.021Z,96422.88
2023-10-26T14:40:20.351Z,96426.05
2023-10-26T14:42:48.704Z,96428.81
2023-10-26T14:45:17.000Z,96432.71
2023-10-26T14:47:45.168Z,96439.87
2023-10-26T14:50:16.537Z,96446.46
2023-10-26T14:52:44.833Z,96449.66
2023-10-26T14:55:17.248Z,96448.79
2023-10-26T14:57:45.463Z,96449.29
2023-10-26T15:00:13.567Z,96443.71
2023-10-26T15:02:41.668Z,96454.45
2023-10-26T15:05:11.225Z,96454.98
2023-10-26T15:07:39.221Z,96455.98
2023-10-26T15:10:22.325Z,96458.67
2023-10-26T15:12:54.965Z,96460.49
2023-10-26T15:15:23.803Z,96458.00
2023-10-26T15:17:52.692Z,96463.29
2023-10-26T15:20:20.912Z,96460.42
2023-10-26T15:22:49.175Z,96462.37
2023-10-26T15:25:17.922Z,96472.84
2023-10-26T15:27:46.039Z,96476.74
2023-10-26T15:30:14.254Z,96477.79
2023-10-26T15:32:42.435Z,96476.69
2023-10-26T15:35:10.570Z,96481.82
2023-10-26T15:37:38.893Z,96481.13
2023-10-26T15:40:07.448Z,96482.71
2023-10-26T15:42:35.578Z,96477.70
2023-10-26T15:45:05.106Z,96477.94
2023-10-26T15:47:33.568Z,96481.07
2023-10-26T15:50:03.358Z,96479.88
2023-10-26T15:52:32.436Z,96482.33
2023-10-26T15:55:00.572Z,96477.52
2023-10-26T15:57:30.575Z,96477.84
2023-10-26T15:59:58.802Z,96484.50
2023-10-26T16:02:26.911Z,96489.51
2023-10-26T16:04:55.122Z,96489.35
2023-10-26T16:07:23.060Z,96492.47
2023-10-26T16:09:52.146Z,96496.42
2023-10-26T16:12:23.435Z,96496.00
2023-10-26T16:14:51.590Z,96492.84
2023-10-26T16:17:19.700Z,96488.54
2023-10-26T16:19:47.936Z,96491.73
2023-10-26T16:22:17.353Z,96494.66
2023-10-26T16:24:46.589Z,96495.00
2023-10-26T16:27:14.835Z,96494.86
2023-10-26T16:29:45.101Z,96487.80
2023-10-26T16:32:15.041Z,96494.96
2023-10-26T16:34:43.866Z,96497.96
2023-10-26T16:37:12.091Z,96501.94
2023-10-26T16:39:40.150Z,96505.12
2023-10-26T16:42:10.999Z,96503.55
2023-10-26T16:44:39.408Z,96506.37
2023-10-26T16:47:07.710Z,96507.86
2023-10-26T16:49:35.869Z,96508.61
2023-10-26T16:52:04.207Z,96510.05
2023-10-26T16:54:32.398Z,96514.63
2023-10-26T16:57:00.656Z,96513.57
2023-10-26T16:59:28.918Z,96513.44
2023-10-26T17:01:57.144Z,96515.32
2023-10-26T17:04:25.271Z,96512.93
2023-10-26T17:06:55.312Z,96511.11
2023-10-26T17:09:25.262Z,96508.06
2023-10-26T17:11:53.367Z,96514.27
2023-10-26T17:14:21.508Z,96516.50
2023-10-26T17:16:49.550Z,96516.73
2023-10-26T17:19:17.602Z,96514.34
2023-10-26T17:21:45.581Z,96511.15
2023-10-26T17:24:16.246Z,96509.86
2023-10-26T17:26:44.673Z,96509.58
2023-10-26T17:29:13.231Z,96513.63
2023-10-26T17:31:43.065Z,96509.40
2023-10-26T17:34:11.071Z,96507.66
2023-10-26T17:36:39.051Z,96511.95
2023-10-26T17:39:07.136Z,96508.98
2023-10-26T17:41:35.450Z,96505.70
2023-10-26T17:44:04.652Z,96504.55
2023-10-26T17:46:32.875Z,96509.88
2023-10-26T17:49:03.990Z,96507.63
2023-10-26T17:51:34.068Z,96509.97
2023-10-26T17:54:02.597Z,96507.23
2023-10-26T17:56:37.311Z,96509.02
2023-10-26T17:59:05.567Z,96510.42
2023-10-26T18:01:37.958Z,96510.45
2023-10-26T18:04:06.620Z,96513.73
2023-10-26T18:06:36.357Z,96513.09
2023-10-26T18:09:05.234Z,96519.16
2023-10-26T18:11:33.419Z,96524.14
2023-10-26T18:14:02.078Z,96524.64
2023-10-26T18:16:32.987Z,96531.36
2023-10-26T18:19:01.526Z,96529.58
2023-10-26T18:21:30.326Z,96540.57
2023-10-26T18:24:00.586Z,96542.18
2023-10-26T18:26:28.784Z,96544.98
2023-10-26T18:28:58.835Z,96550.17
2023-10-26T18:31:27.678Z,96554.23
2023-10-26T18:33:56.596Z,96560.83
2023-10-26T18:36:29.733Z,96561.55
2023-10-26T18:38:57.784Z,96559.78
2023-10-26T18:41:26.843Z,96558.89
2023-10-26T18:43:58.448Z,96558.63
2023-10-26T18:46:27.023Z,96559.73
2023-10-26T18:48:55.668Z,96558.04
2023-10-26T18:51:24.621Z,96556.13
2023-10-26T18:53:54.559Z,96560.15
2023-10-26T18:56:23.859Z,96561.41
2023-10-26T18:58:52.333Z,96560.21
2023-10-26T19:01:21.643Z,96561.90
2023-10-26T19:06:21.538Z,96555.30
2023-10-26T19:08:51.187Z,96548.59
2023-10-26T19:11:19.342Z,96543.27
2023-10-26T19:13:48.534Z,96539.09
2023-10-26T19:16:16.856Z,96540.16
2023-10-26T19:18:45.027Z,96539.20
2023-10-26T19:21:15.347Z,96543.80
2023-10-26T19:23:43.372Z,96544.97
2023-10-26T19:26:11.446Z,96543.15
2023-10-26T19:28:41.482Z,96546.02
2023-10-26T19:31:11.288Z,96547.98
2023-10-26T19:33:42.794Z,96551.47
2023-10-26T19:36:11.266Z,96550.62
2023-10-26T19:38:41.491Z,96553.41
2023-10-26T19:41:13.154Z,96556.52
2023-10-26T19:43:41.574Z,96560.86
2023-10-26T19:46:10.961Z,96565.48
2023-10-26T19:48:39.173Z,96565.88
2023-10-26T19:51:07.137Z,96571.02
2023-10-26T19:53:36.700Z,96571.59
2023-10-26T19:56:05.365Z,96568.83
2023-10-26T19:58:34.963Z,96565.52
2023-10-26T20:01:04.733Z,96565.64
2023-10-26T20:03:32.967Z,96563.56
2023-10-26T20:06:05.127Z,96563.16
2023-10-26T20:08:33.218Z,96556.52
2023-10-26T20:11:01.208Z,96550.37
2023-10-26T20:13:29.567Z,96545.81
2023-10-26T20:15:57.689Z,96540.02
2023-10-26T20:18:25.768Z,96535.09
2023-10-26T20:20:53.917Z,96530.41
2023-10-26T20:23:21.900Z,96531.39
2023-10-26T20:25:50.572Z,96524.77
2023-10-26T20:28:19.983Z,96523.39
2023-10-26T20:30:48.152Z,96526.71
2023-10-26T20:33:20.336Z,96530.56
2023-10-26T20:35:52.296Z,96534.98
2023-10-26T20:38:20.877Z,96536.86
2023-10-26T20:40:48.823Z,96544.14
2023-10-26T20:43:16.948Z,96549.15
2023-10-26T20:45:46.819Z,96555.76
2023-10-26T20:48:14.774Z,96558.80
2023-10-26T20:50:42.843Z,96569.16
2023-10-26T20:53:10.856Z,96568.33
2023-10-26T20:55:39.366Z,96569.52
2023-10-26T20:58:07.419Z,96566.94
2023-10-26T21:00:35.824Z,96561.63
2023-10-26T21:03:03.939Z,96554.50
2023-10-26T21:05:32.196Z,96544.92
2023-10-26T21:08:00.265Z,96537.98
2023-10-26T21:10:28.266Z,96536.16
2023-10-26T21:12:56.520Z,96539.73
2023-10-26T21:15:24.659Z,96544.77
2023-10-26T21:17:52.661Z,96544.94
2023-10-26T21:20:21.057Z,96543.38
2023-10-26T21:22:49.043Z,96534.01
2023-10-26T21:25:17.267Z,96524.19
2023-10-26T21:27:45.384Z,96528.10
2023-10-26T21:30:14.300Z,96524.19
2023-10-26T21:32:42.460Z,96521.73
2023-10-26T21:35:10.639Z,96518.86
2023-10-26T21:37:38.626Z,96517.20
2023-10-26T21:40:07.706Z,96515.58
2023-10-26T21:42:35.918Z,96514.67
2023-10-26T21:45:05.028Z,96515.96
2023-10-26T21:47:33.285Z,96515.83
2023-10-26T21:50:01.593Z,96513.59
2023-10-26T21:52:29.682Z,96506.57
2023-10-26T21:54:57.911Z,96495.95
2023-10-26T21:57:25.901Z,96500.90
2023-10-26T21:59:54.040Z,96490.71
2023-10-26T22:02:22.332Z,96480.52
2023-10-26T22:04:50.428Z,96476.30
2023-10-26T22:07:21.569Z,96475.60
2023-10-26T22:09:55.356Z,96471.20
2023-10-26T22:12:23.854Z,96475.16
2023-10-26T22:14:51.881Z,96481.06
2023-10-26T22:17:20.022Z,96483.52
2023-10-26T22:19:51.648Z,96479.70
2023-10-26T22:22:19.959Z,96468.94
2023-10-26T22:24:48.327Z,96465.46
2023-10-26T22:27:16.356Z,96466.42
2023-10-26T22:29:44.539Z,96470.79
2023-10-26T22:32:12.772Z,96470.36
2023-10-26T22:34:40.873Z,96468.73
2023-10-26T22:37:09.208Z,96468.33
2023-10-26T22:39:37.433Z,96475.37
2023-10-26T22:42:05.734Z,96469.59
2023-10-26T22:44:33.712Z,96453.94
2023-10-26T22:47:01.772Z,96452.60
2023-10-26T22:49:29.748Z,96466.70
2023-10-26T22:51:58.150Z,96475.02
2023-10-26T22:54:26.179Z,96470.21
2023-10-26T22:56:54.298Z,96458.13
2023-10-26T22:59:23.101Z,96447.10
2023-10-26T23:01:51.540Z,96455.16
2023-10-26T23:04:19.945Z,96465.78
2023-10-26T23:06:48.171Z,96461.15
2023-10-26T23:09:17.197Z,96458.38
2023-10-26T23:11:45.554Z,96444.29
2023-10-26T23:14:14.035Z,96431.70
2023-10-26T23:16:47.523Z,96429.98
2023-10-26T23:19:18.771Z,96434.30
2023-10-26T23:21:47.586Z,96430.05
2023-10-26T23:24:19.102Z,96426.59
2023-10-26T23:26:48.766Z,96433.45
2023-10-26T23:29:16.831Z,96444.60
2023-10-26T23:31:44.849Z,96444.17
2023-10-26T23:34:12.979Z,96438.63
2023-10-26T23:36:41.309Z,96434.88
2023-10-26T23:39:09.685Z,96436.23
2023-10-26T23:41:37.962Z,96428.64
2023-10-26T23:44:06.288Z,96428.46
2023-10-26T23:46:34.951Z,96443.44
2023-10-26T23:49:03.150Z,96445.70
2023-10-26T23:51:31.167Z,96436.15
2023-10-26T23:53:59.288Z,96425.38
2023-10-26T23:56:27.424Z,96424.31
2023-10-26T23:58:56.467Z,96424.21
